createdAt,value
2019-01-30T00:02:09.445Z,33.20
2019-01-30T00:04:38.787Z,36.77
2019-01-30T00:07:08.146Z,34.77
2019-01-30T00:09:37.436Z,36.20
2019-01-30T00:12:06.791Z,44.20
2019-01-30T00:14:36.014Z,36.07
2019-01-30T00:17:05.323Z,34.40
2019-01-30T00:19:34.701Z,37.63
2019-01-30T00:22:04.352Z,34.30
2019-01-30T00:24:33.701Z,36.80
2019-01-30T00:27:03.103Z,33.87
2019-01-30T00:29:32.898Z,34.20
2019-01-30T00:32:02.263Z,37.87
2019-01-30T00:34:31.531Z,34.53
2019-01-30T00:37:00.847Z,38.83
2019-01-30T00:39:30.187Z,32.17
2019-01-30T00:41:59.491Z,33.90
2019-01-30T00:44:28.747Z,37.70
2019-01-30T00:46:57.998Z,40.43
2019-01-30T00:49:29.564Z,35.10
2019-01-30T00:51:58.857Z,34.57
2019-01-30T00:54:32.223Z,33.57
2019-01-30T00:56:59.191Z,34.57
2019-01-30T00:59:28.466Z,35.70
2019-01-30T01:01:57.819Z,33.23
2019-01-30T01:04:27.076Z,33.37
2019-01-30T01:06:56.287Z,35.60
2019-01-30T01:09:25.550Z,32.73
2019-01-30T01:11:54.833Z,34.47
2019-01-30T01:14:24.083Z,39.70
2019-01-30T01:16:53.326Z,33.87
2019-01-30T01:19:22.575Z,28.80
2019-01-30T01:21:51.951Z,33.53
2019-01-30T01:24:21.225Z,35.23
2019-01-30T01:26:50.482Z,35.30
2019-01-30T01:29:19.711Z,31.73
2019-01-30T01:31:48.957Z,35.13
2019-01-30T01:34:18.217Z,33.73
2019-01-30T01:36:47.421Z,31.17
2019-01-30T01:39:16.678Z,38.40
2019-01-30T01:41:46.001Z,36.20
2019-01-30T01:44:15.472Z,34.23
2019-01-30T01:46:44.797Z,36.20
2019-01-30T01:49:14.021Z,31.77
2019-01-30T01:51:43.341Z,33.57
2019-01-30T01:54:12.642Z,32.13
2019-01-30T01:56:42.084Z,30.40
2019-01-30T01:59:11.336Z,28.73
2019-01-30T02:01:40.590Z,28.40
2019-01-30T02:04:09.868Z,26.60
2019-01-30T02:06:39.090Z,25.40
2019-01-30T02:09:09.056Z,25.40
2019-01-30T02:11:38.297Z,30.57
2019-01-30T02:14:07.565Z,24.67
2019-01-30T02:16:36.951Z,28.27
2019-01-30T02:19:06.201Z,25.20
2019-01-30T02:21:35.455Z,25.30
2019-01-30T02:24:04.740Z,24.43
2019-01-30T02:26:34.010Z,27.43
2019-01-30T02:29:03.241Z,23.27
2019-01-30T02:31:32.512Z,26.57
2019-01-30T02:34:01.758Z,26.63
2019-01-30T02:36:31.305Z,29.80
2019-01-30T02:39:00.618Z,19.97
2019-01-30T02:41:29.962Z,21.40
2019-01-30T02:43:59.335Z,23.57
2019-01-30T02:46:28.548Z,23.60
2019-01-30T02:48:57.819Z,26.37
2019-01-30T02:51:27.062Z,20.93
2019-01-30T02:53:56.426Z,23.17
2019-01-30T02:56:25.743Z,21.27
2019-01-30T02:58:55.020Z,25.10
2019-01-30T03:01:24.275Z,21.83
2019-01-30T03:03:53.519Z,19.90
2019-01-30T03:06:22.727Z,21.20
2019-01-30T03:08:52.123Z,28.13
2019-01-30T03:12:00.596Z,27.80
2019-01-30T03:14:29.830Z,21.60
2019-01-30T03:16:59.092Z,20.40
2019-01-30T03:19:28.366Z,20.63
2019-01-30T03:21:57.604Z,23.63
2019-01-30T03:24:26.951Z,19.60
2019-01-30T03:26:56.218Z,20.77
2019-01-30T03:29:27.516Z,28.07
2019-01-30T03:31:56.807Z,21.43
2019-01-30T03:34:26.144Z,21.27
2019-01-30T03:36:55.629Z,23.17
2019-01-30T03:39:24.873Z,25.37
2019-01-30T03:41:54.141Z,23.30
2019-01-30T03:44:23.522Z,23.53
2019-01-30T03:46:52.751Z,21.20
2019-01-30T03:49:22.085Z,21.20
2019-01-30T03:51:51.447Z,23.73
2019-01-30T03:57:49.961Z,21.83
2019-01-30T04:00:21.382Z,25.73
2019-01-30T04:02:51.269Z,21.90
2019-01-30T04:05:20.531Z,21.77
2019-01-30T04:07:49.844Z,22.70
2019-01-30T04:10:21.069Z,21.03
2019-01-30T04:12:50.307Z,18.50
2019-01-30T04:15:19.717Z,20.40
2019-01-30T04:17:49.064Z,21.53
2019-01-30T04:20:19.298Z,19.43
2019-01-30T04:22:48.684Z,18.93
2019-01-30T04:25:18.363Z,21.67
2019-01-30T04:27:47.578Z,22.87
2019-01-30T04:30:21.858Z,21.63
2019-01-30T04:32:51.084Z,23.67
2019-01-30T04:35:20.392Z,20.17
2019-01-30T04:37:49.618Z,22.43
2019-01-30T04:40:20.448Z,21.70
2019-01-30T04:42:49.728Z,25.90
2019-01-30T04:45:21.521Z,19.93
2019-01-30T04:47:50.869Z,23.13
2019-01-30T04:50:20.236Z,24.13
2019-01-30T04:52:49.490Z,21.47
2019-01-30T04:55:19.036Z,20.13
2019-01-30T04:57:48.290Z,26.03
2019-01-30T05:00:19.885Z,19.80
2019-01-30T05:02:49.349Z,23.10
2019-01-30T05:05:18.716Z,20.83
2019-01-30T05:07:47.952Z,18.43
2019-01-30T05:10:17.306Z,24.70
2019-01-30T05:12:46.524Z,22.80
2019-01-30T05:15:17.514Z,22.83
2019-01-30T05:17:46.931Z,21.07
2019-01-30T05:20:17.771Z,24.50
2019-01-30T05:22:47.032Z,25.93
2019-01-30T05:25:16.621Z,25.03
2019-01-30T05:27:45.893Z,23.47
2019-01-30T05:30:21.424Z,25.77
2019-01-30T05:32:50.680Z,21.87
2019-01-30T05:35:20.100Z,27.87
2019-01-30T05:37:51.396Z,25.47
2019-01-30T05:40:20.568Z,22.33
2019-01-30T05:42:49.863Z,28.20
2019-01-30T05:45:19.139Z,25.23
2019-01-30T05:47:48.402Z,32.93
2019-01-30T05:50:17.724Z,25.07
2019-01-30T05:52:47.000Z,26.80
2019-01-30T05:55:17.824Z,23.97
2019-01-30T05:57:47.213Z,25.17
2019-01-30T06:00:26.887Z,30.00
2019-01-30T06:02:56.175Z,23.27
2019-01-30T06:05:25.420Z,23.70
2019-01-30T06:07:54.774Z,22.77
2019-01-30T06:10:24.058Z,24.10
2019-01-30T06:12:53.599Z,23.77
2019-01-30T06:15:22.844Z,23.93
2019-01-30T06:17:52.078Z,23.57
2019-01-30T06:20:23.824Z,21.70
2019-01-30T06:22:53.152Z,22.53
2019-01-30T06:25:22.486Z,23.43
2019-01-30T06:27:51.849Z,25.43
2019-01-30T06:30:21.179Z,21.17
2019-01-30T06:32:50.643Z,23.97
2019-01-30T06:35:19.948Z,23.33
2019-01-30T06:37:49.597Z,20.80
2019-01-30T06:40:27.427Z,21.07
2019-01-30T06:42:56.715Z,23.00
2019-01-30T06:45:26.221Z,22.00
2019-01-30T06:47:55.479Z,23.20
2019-01-30T06:50:24.723Z,19.93
2019-01-30T06:52:53.995Z,21.70
2019-01-30T06:55:23.374Z,23.10
2019-01-30T06:57:52.621Z,23.57
2019-01-30T07:00:23.993Z,17.57
2019-01-30T07:02:53.579Z,21.60
2019-01-30T07:05:22.801Z,25.27
2019-01-30T07:07:52.232Z,23.53
2019-01-30T07:10:23.456Z,27.73
2019-01-30T07:12:52.742Z,20.80
2019-01-30T07:15:22.419Z,20.43
2019-01-30T07:17:51.870Z,20.80
2019-01-30T07:20:21.146Z,18.70
2019-01-30T07:22:50.444Z,23.10
2019-01-30T07:25:22.928Z,23.67
2019-01-30T07:27:52.043Z,22.20
2019-01-30T07:30:39.489Z,21.63
2019-01-30T07:33:08.949Z,19.87
2019-01-30T07:35:38.321Z,19.47
2019-01-30T07:38:07.701Z,20.17
2019-01-30T07:40:37.250Z,22.17
2019-01-30T07:43:06.576Z,20.67
2019-01-30T07:45:35.972Z,21.33
2019-01-30T07:48:05.602Z,22.97
2019-01-30T07:50:34.854Z,18.43
2019-01-30T07:53:04.123Z,19.03
2019-01-30T07:55:33.496Z,18.67
2019-01-30T07:58:02.861Z,18.03
2019-01-30T08:00:33.680Z,14.90
2019-01-30T08:03:02.948Z,20.23
2019-01-30T08:05:32.217Z,18.20
2019-01-30T08:08:01.456Z,19.83
2019-01-30T08:10:30.708Z,18.73
2019-01-30T08:13:00.180Z,20.80
2019-01-30T08:15:29.553Z,20.43
2019-01-30T08:17:59.032Z,18.90
2019-01-30T08:20:28.336Z,17.20
2019-01-30T08:22:57.975Z,22.23
2019-01-30T08:25:27.697Z,15.30
2019-01-30T08:27:57.473Z,18.43
2019-01-30T08:30:29.404Z,20.37
2019-01-30T08:33:04.826Z,20.30
2019-01-30T08:35:33.020Z,20.13
2019-01-30T08:38:02.356Z,17.23
2019-01-30T08:40:32.050Z,18.63
2019-01-30T08:43:01.311Z,15.53
2019-01-30T08:45:32.052Z,16.53
2019-01-30T08:48:01.750Z,20.23
2019-01-30T08:50:31.661Z,16.07
2019-01-30T08:53:01.219Z,18.47
2019-01-30T08:55:30.507Z,18.00
2019-01-30T08:57:59.965Z,16.63
2019-01-30T09:01:14.370Z,21.30
2019-01-30T09:03:43.719Z,17.47
2019-01-30T09:06:12.989Z,21.00
2019-01-30T09:08:42.346Z,19.03
2019-01-30T09:11:11.756Z,19.57
2019-01-30T09:13:41.056Z,18.80
2019-01-30T09:16:10.336Z,17.50
2019-01-30T09:18:39.637Z,18.43
2019-01-30T09:21:08.900Z,15.70
2019-01-30T09:23:38.317Z,18.23
2019-01-30T09:26:07.622Z,17.53
2019-01-30T09:28:37.261Z,15.40
2019-01-30T09:31:06.560Z,17.87
2019-01-30T09:33:35.913Z,17.03
2019-01-30T09:36:05.295Z,16.27
2019-01-30T09:38:34.734Z,19.03
2019-01-30T09:41:04.178Z,18.30
2019-01-30T09:43:33.459Z,21.73
2019-01-30T09:46:03.039Z,16.97
2019-01-30T09:48:32.278Z,15.53
2019-01-30T09:51:01.695Z,18.03
2019-01-30T09:53:31.041Z,15.30
2019-01-30T09:56:00.389Z,16.40
2019-01-30T09:58:29.637Z,15.67
2019-01-30T10:00:58.949Z,15.97
2019-01-30T10:03:36.161Z,12.73
2019-01-30T10:05:59.551Z,18.47
2019-01-30T10:08:28.819Z,28.07
2019-01-30T10:10:58.204Z,17.47
2019-01-30T10:13:27.860Z,22.73
2019-01-30T10:15:57.239Z,14.90
2019-01-30T10:18:26.551Z,13.37
2019-01-30T10:20:55.920Z,12.83
2019-01-30T10:23:25.236Z,12.17
2019-01-30T10:25:54.515Z,14.23
2019-01-30T10:28:23.825Z,12.80
2019-01-30T10:30:52.026Z,13.40
2019-01-30T10:33:21.355Z,14.23
2019-01-30T10:35:50.771Z,14.13
2019-01-30T10:38:20.251Z,15.83
2019-01-30T10:40:49.500Z,17.20
2019-01-30T10:43:18.977Z,12.50
2019-01-30T10:45:48.459Z,17.23
2019-01-30T10:48:17.781Z,14.70
2019-01-30T10:50:47.064Z,12.40
2019-01-30T10:53:16.397Z,15.03
2019-01-30T10:55:45.742Z,14.33
2019-01-30T10:58:17.351Z,13.10
2019-01-30T11:00:48.850Z,13.83
2019-01-30T11:03:18.581Z,12.73
2019-01-30T11:05:48.035Z,14.07
2019-01-30T11:08:17.499Z,11.13
2019-01-30T11:10:46.852Z,14.50
2019-01-30T11:13:16.140Z,11.30
2019-01-30T11:15:45.365Z,13.97
2019-01-30T11:18:16.146Z,16.33
2019-01-30T11:20:45.480Z,13.90
2019-01-30T11:23:14.962Z,13.83
2019-01-30T11:25:46.183Z,16.37
2019-01-30T11:28:15.734Z,13.53
2019-01-30T11:30:47.582Z,11.80
2019-01-30T11:33:17.232Z,14.50
2019-01-30T11:35:46.531Z,14.10
2019-01-30T11:38:15.843Z,18.33
2019-01-30T11:40:45.362Z,16.13
2019-01-30T11:43:14.670Z,10.20
2019-01-30T11:45:45.180Z,13.77
2019-01-30T11:48:14.445Z,14.30
2019-01-30T11:50:44.057Z,11.07
2019-01-30T11:53:13.549Z,12.90
2019-01-30T11:55:43.006Z,13.10
2019-01-30T11:58:12.311Z,12.50
2019-01-30T12:04:22.490Z,9.80
2019-01-30T12:06:51.791Z,12.40
2019-01-30T12:09:21.065Z,18.87
2019-01-30T12:11:53.369Z,13.33
2019-01-30T12:14:22.621Z,21.50
2019-01-30T12:16:52.043Z,12.77
2019-01-30T12:19:21.431Z,11.97
2019-01-30T12:21:50.779Z,12.73
2019-01-30T12:24:20.279Z,14.63
2019-01-30T12:26:49.539Z,11.10
2019-01-30T12:29:18.832Z,9.40
2019-01-30T12:31:48.079Z,9.07
2019-01-30T12:34:17.322Z,12.33
2019-01-30T12:36:48.223Z,10.73
2019-01-30T12:39:17.551Z,13.93
2019-01-30T12:41:47.014Z,11.70
2019-01-30T12:44:16.353Z,18.43
2019-01-30T12:46:45.649Z,8.47
2019-01-30T12:49:15.089Z,11.73
2019-01-30T12:51:44.322Z,13.33
2019-01-30T12:54:13.673Z,19.93
2019-01-30T12:56:43.071Z,10.40
2019-01-30T12:59:12.467Z,11.50
2019-01-30T13:01:41.717Z,10.07
2019-01-30T13:04:10.981Z,16.10
2019-01-30T13:06:40.224Z,11.47
2019-01-30T13:09:10.676Z,12.87
2019-01-30T13:11:39.980Z,10.20
2019-01-30T13:14:09.234Z,8.17
2019-01-30T13:16:38.835Z,9.30
2019-01-30T13:22:28.014Z,11.17
2019-01-30T13:24:57.385Z,9.73
2019-01-30T13:27:32.878Z,9.03
2019-01-30T13:30:02.109Z,8.67
2019-01-30T13:32:31.669Z,7.03
2019-01-30T13:35:00.913Z,7.37
2019-01-30T13:41:11.157Z,5.30
2019-01-30T13:43:40.419Z,6.33
2019-01-30T13:46:09.694Z,8.87
2019-01-30T13:48:39.510Z,9.87
2019-01-30T13:51:11.258Z,9.27
2019-01-30T13:54:07.460Z,9.03
2019-01-30T13:56:36.730Z,10.30
2019-01-30T13:59:05.964Z,9.30
2019-01-30T14:01:35.309Z,16.77
2019-01-30T14:04:04.546Z,10.87
2019-01-30T14:06:33.880Z,7.70
2019-01-30T14:09:04.088Z,10.77
2019-01-30T14:11:33.792Z,13.93
2019-01-30T14:14:03.025Z,10.50
2019-01-30T14:16:32.266Z,9.30
2019-01-30T14:19:01.537Z,13.10
2019-01-30T14:21:30.765Z,12.97
2019-01-30T14:23:59.987Z,11.97
2019-01-30T14:26:29.354Z,6.73
2019-01-30T14:29:19.336Z,9.23
2019-01-30T14:31:48.644Z,10.33
2019-01-30T14:34:17.897Z,6.97
2019-01-30T14:36:47.246Z,8.57
2019-01-30T14:39:16.509Z,8.30
2019-01-30T14:41:45.763Z,7.80
2019-01-30T14:44:15.050Z,6.60
2019-01-30T14:46:44.328Z,5.63
2019-01-30T14:49:13.665Z,5.17
2019-01-30T14:51:42.961Z,10.63
2019-01-30T14:54:12.294Z,16.30
2019-01-30T14:56:41.677Z,8.37
2019-01-30T14:59:10.917Z,9.87
2019-01-30T15:01:40.352Z,10.60
2019-01-30T15:04:09.660Z,15.10
2019-01-30T15:06:38.910Z,9.37
2019-01-30T15:09:10.095Z,10.57
2019-01-30T15:11:39.364Z,7.43
2019-01-30T15:14:08.717Z,6.67
2019-01-30T15:16:38.047Z,9.07
2019-01-30T15:19:07.513Z,9.20
2019-01-30T15:21:36.821Z,7.67
2019-01-30T15:24:06.571Z,7.80
2019-01-30T15:26:36.025Z,10.03
2019-01-30T15:29:05.866Z,7.33
2019-01-30T15:31:35.286Z,9.50
2019-01-30T15:34:04.531Z,7.53
2019-01-30T15:36:34.020Z,7.57
2019-01-30T15:39:04.457Z,11.70
2019-01-30T15:41:33.929Z,15.87
2019-01-30T15:44:03.155Z,10.77
2019-01-30T15:46:32.450Z,11.47
2019-01-30T15:49:01.707Z,9.93
2019-01-30T15:51:31.004Z,9.30
2019-01-30T15:54:00.266Z,12.07
2019-01-30T15:56:29.514Z,14.20
2019-01-30T15:58:58.969Z,10.20
2019-01-30T16:01:32.944Z,9.73
2019-01-30T16:04:05.952Z,9.67
2019-01-30T16:06:33.206Z,15.47
2019-01-30T16:09:02.510Z,10.67
2019-01-30T16:11:31.886Z,12.07
2019-01-30T16:14:01.262Z,12.53
2019-01-30T16:16:30.519Z,11.80
2019-01-30T16:18:59.873Z,11.43
2019-01-30T16:21:29.234Z,12.33
2019-01-30T16:23:58.601Z,12.93
2019-01-30T16:26:27.985Z,12.58
2019-01-30T16:28:57.233Z,12.03
2019-01-30T16:31:26.579Z,13.43
2019-01-30T16:33:55.888Z,13.03
2019-01-30T16:36:25.321Z,11.83
2019-01-30T16:38:54.579Z,20.03
2019-01-30T16:41:23.932Z,13.73
2019-01-30T16:43:53.291Z,14.87
2019-01-30T16:47:13.633Z,11.40
2019-01-30T16:49:42.911Z,18.40
2019-01-30T16:52:12.168Z,14.50
2019-01-30T16:54:41.468Z,18.27
2019-01-30T16:57:11.057Z,15.23
2019-01-30T16:59:40.328Z,12.27
2019-01-30T17:02:09.990Z,15.90
2019-01-30T17:04:39.430Z,12.73
2019-01-30T17:07:08.965Z,11.03
2019-01-30T17:09:38.356Z,11.80
2019-01-30T17:12:07.617Z,18.50
2019-01-30T17:14:36.918Z,15.07
2019-01-30T17:17:06.199Z,12.87
2019-01-30T17:19:35.466Z,10.43
2019-01-30T17:22:04.704Z,11.33
2019-01-30T17:24:34.090Z,9.93
2019-01-30T17:27:03.299Z,10.97
2019-01-30T17:29:32.583Z,11.67
2019-01-30T17:32:02.352Z,16.10
2019-01-30T17:34:31.610Z,22.70
2019-01-30T17:37:00.910Z,23.23
2019-01-30T17:39:30.424Z,11.83
2019-01-30T17:41:59.743Z,17.67
2019-01-30T17:44:29.045Z,16.10
2019-01-30T17:46:58.316Z,15.97
2019-01-30T17:49:27.747Z,14.67
2019-01-30T17:51:56.996Z,11.93
2019-01-30T17:54:26.568Z,11.50
2019-01-30T17:56:56.049Z,14.13
2019-01-30T17:59:25.402Z,14.90
2019-01-30T18:01:54.846Z,17.17
2019-01-30T18:04:24.435Z,13.07
2019-01-30T18:06:53.798Z,23.67
2019-01-30T18:09:23.019Z,20.93
2019-01-30T18:11:52.253Z,19.60
2019-01-30T18:14:21.512Z,22.97
2019-01-30T18:16:51.098Z,16.63
2019-01-30T18:19:20.418Z,22.37
2019-01-30T18:21:49.963Z,17.20
2019-01-30T18:24:19.349Z,15.93
2019-01-30T18:26:48.779Z,16.07
2019-01-30T18:29:18.099Z,22.00
2019-01-30T18:31:47.481Z,21.53
2019-01-30T18:34:16.810Z,18.23
2019-01-30T18:36:46.232Z,21.70
2019-01-30T18:39:15.517Z,21.30
2019-01-30T18:41:44.804Z,15.50
2019-01-30T18:44:14.357Z,17.43
2019-01-30T18:46:43.962Z,18.13
2019-01-30T18:49:13.251Z,21.37
2019-01-30T18:51:42.833Z,28.60
2019-01-30T18:54:12.104Z,27.53
2019-01-30T18:56:41.515Z,26.43
2019-01-30T18:59:11.030Z,26.67
2019-01-30T19:01:40.307Z,28.87
2019-01-30T19:04:09.826Z,30.40
2019-01-30T19:06:39.234Z,23.97
2019-01-30T19:09:11.352Z,24.77
2019-01-30T19:11:40.915Z,24.27
2019-01-30T19:14:10.267Z,27.30
2019-01-30T19:16:39.778Z,21.33
2019-01-30T19:19:09.199Z,26.17
2019-01-30T19:21:38.887Z,24.33
2019-01-30T19:24:08.134Z,28.57
2019-01-30T19:26:37.678Z,31.50
2019-01-30T19:29:06.982Z,26.40
2019-01-30T19:31:36.364Z,25.37
2019-01-30T19:34:05.770Z,26.33
2019-01-30T19:36:35.454Z,29.23
2019-01-30T19:39:07.589Z,26.87
2019-01-30T19:41:36.988Z,27.97
2019-01-30T19:44:06.460Z,28.67
2019-01-30T19:46:36.826Z,32.87
2019-01-30T19:49:06.216Z,28.20
2019-01-30T19:51:35.769Z,43.33
2019-01-30T19:54:05.228Z,28.03
2019-01-30T19:56:34.745Z,30.40
2019-01-30T19:59:04.031Z,28.13
2019-01-30T20:01:36.299Z,28.07
2019-01-30T20:04:04.614Z,29.53
2019-01-30T20:06:34.196Z,29.47
2019-01-30T20:09:05.290Z,24.20
2019-01-30T20:11:34.838Z,29.50
2019-01-30T20:14:04.497Z,26.07
2019-01-30T20:16:33.992Z,29.47
2019-01-30T20:19:03.732Z,28.93
2019-01-30T20:21:33.252Z,33.23
2019-01-30T20:24:02.602Z,34.47
2019-01-30T20:26:31.966Z,31.83
2019-01-30T20:29:01.550Z,30.63
2019-01-30T20:31:31.891Z,33.10
2019-01-30T20:34:10.052Z,34.57
2019-01-30T20:36:32.375Z,35.27
2019-01-30T20:39:01.946Z,32.50
2019-01-30T20:41:31.373Z,36.67
2019-01-30T20:44:01.330Z,30.53
2019-01-30T20:46:31.212Z,35.93
2019-01-30T20:49:01.053Z,33.03
2019-01-30T20:51:30.317Z,30.53
2019-01-30T20:54:00.662Z,34.67
2019-01-30T20:56:30.239Z,31.10
2019-01-30T20:58:59.939Z,28.70
2019-01-30T21:01:29.378Z,31.37
2019-01-30T21:03:59.940Z,29.90
2019-01-30T21:06:29.901Z,29.97
2019-01-30T21:08:59.406Z,34.10
2019-01-30T21:11:28.796Z,36.80
2019-01-30T21:13:58.158Z,29.63
2019-01-30T21:16:27.608Z,36.23
2019-01-30T21:18:56.953Z,32.77
2019-01-30T21:21:26.456Z,26.30
2019-01-30T21:23:56.147Z,28.53
2019-01-30T21:26:25.863Z,33.67
2019-01-30T21:28:55.393Z,32.73
2019-01-30T21:31:25.279Z,33.70
2019-01-30T21:33:55.355Z,32.63
2019-01-30T21:36:24.887Z,30.13
2019-01-30T21:38:54.342Z,31.17
2019-01-30T21:41:23.634Z,30.83
2019-01-30T21:43:53.219Z,27.93
2019-01-30T21:46:22.887Z,29.27
2019-01-30T21:48:55.227Z,28.43
2019-01-30T21:51:23.578Z,30.33
2019-01-30T21:53:52.914Z,31.50
2019-01-30T21:56:22.287Z,30.33
2019-01-30T21:58:51.761Z,28.73
2019-01-30T22:01:21.355Z,30.67
2019-01-30T22:03:50.782Z,27.10
2019-01-30T22:06:20.178Z,27.57
2019-01-30T22:08:49.485Z,27.10
2019-01-30T22:11:18.855Z,28.07
2019-01-30T22:13:48.244Z,30.33
2019-01-30T22:16:17.618Z,30.07
2019-01-30T22:18:46.944Z,27.33
2019-01-30T22:21:16.356Z,29.17
2019-01-30T22:23:45.638Z,25.83
2019-01-30T22:26:14.952Z,30.90
2019-01-30T22:28:44.243Z,30.17
2019-01-30T22:31:13.604Z,26.90
2019-01-30T22:33:42.976Z,33.00
2019-01-30T22:36:12.233Z,31.67
2019-01-30T22:38:41.464Z,31.83
2019-01-30T22:41:10.864Z,33.27
2019-01-30T22:43:40.285Z,33.63
2019-01-30T22:46:09.655Z,27.07
2019-01-30T22:48:38.913Z,29.17
2019-01-30T22:51:08.310Z,30.40
2019-01-30T22:53:37.747Z,28.37
2019-01-30T22:56:08.386Z,27.90
2019-01-30T22:58:37.772Z,25.13
2019-01-30T23:02:00.415Z,26.77
2019-01-30T23:05:13.535Z,30.43
2019-01-30T23:08:22.934Z,27.10
2019-01-30T23:11:18.935Z,28.40
2019-01-30T23:14:03.714Z,25.70
2019-01-30T23:17:15.361Z,29.20
2019-01-30T23:20:12.321Z,26.00
2019-01-30T23:23:43.886Z,27.87
2019-01-30T23:26:43.579Z,32.57
2019-01-30T23:29:42.312Z,30.77
2019-01-30T23:32:55.022Z,28.63
2019-01-30T23:36:02.146Z,29.77
2019-01-30T23:39:12.151Z,28.53
2019-01-30T23:42:11.861Z,27.60
2019-01-30T23:45:15.106Z,30.53
2019-01-30T23:48:20.187Z,26.80
2019-01-30T23:51:21.353Z,29.93
2019-01-30T23:54:34.480Z,28.60
2019-01-30T23:57:57.125Z,29.77
